createdAt,value
2017-05-02T00:00:20.291Z,-6.66
2017-05-02T00:01:20.261Z,-6.72
2017-05-02T00:02:20.241Z,-6.66
2017-05-02T00:03:20.253Z,-6.72
2017-05-02T00:04:20.193Z,-6.69
2017-05-02T00:05:20.169Z,-6.66
2017-05-02T00:06:20.145Z,-6.71
2017-05-02T00:07:20.125Z,-6.71
2017-05-02T00:08:20.097Z,-6.72
2017-05-02T00:09:20.078Z,-6.69
2017-05-02T00:10:20.052Z,-6.79
2017-05-02T00:11:20.036Z,-6.78
2017-05-02T00:12:20.003Z,-6.78
2017-05-02T00:13:19.986Z,-6.75
2017-05-02T00:14:19.967Z,-6.75
2017-05-02T00:15:19.936Z,-6.75
2017-05-02T00:16:19.919Z,-6.81
2017-05-02T00:17:19.589Z,-6.74
2017-05-02T00:18:19.875Z,-6.71
2017-05-02T00:19:19.846Z,-6.74
2017-05-02T00:20:19.825Z,-6.84
2017-05-02T00:21:19.803Z,-6.78
2017-05-02T00:22:19.777Z,-6.85
2017-05-02T00:23:19.755Z,-6.81
2017-05-02T00:24:19.729Z,-6.71
2017-05-02T00:25:19.708Z,-6.78
2017-05-02T00:26:19.689Z,-6.78
2017-05-02T00:27:19.665Z,-6.79
2017-05-02T00:28:19.648Z,-6.87
2017-05-02T00:29:19.622Z,-6.84
2017-05-02T00:30:19.588Z,-6.85
2017-05-02T00:31:19.573Z,-6.82
2017-05-02T00:32:19.552Z,-6.89
2017-05-02T00:33:19.522Z,-6.85
2017-05-02T00:34:19.501Z,-6.87
2017-05-02T00:35:19.476Z,-6.82
2017-05-02T00:36:19.452Z,-6.79
2017-05-02T00:37:19.440Z,-6.82
2017-05-02T00:38:19.411Z,-6.85
2017-05-02T00:39:19.393Z,-6.74
2017-05-02T00:40:19.363Z,-6.79
2017-05-02T00:41:19.346Z,-6.77
2017-05-02T00:42:19.319Z,-6.74
2017-05-02T00:43:19.296Z,-6.77
2017-05-02T00:44:19.279Z,-6.78
2017-05-02T00:45:19.249Z,-6.79
2017-05-02T00:46:19.225Z,-6.75
2017-05-02T00:47:19.214Z,-6.84
2017-05-02T00:48:19.180Z,-6.85
2017-05-02T00:49:19.158Z,-6.87
2017-05-02T00:50:19.136Z,-6.92
2017-05-02T00:51:19.113Z,-6.9
2017-05-02T00:52:19.093Z,-6.96
2017-05-02T00:53:18.768Z,-6.92
2017-05-02T00:54:19.044Z,-6.92
2017-05-02T00:55:19.022Z,-7
2017-05-02T00:56:19.000Z,-6.93
2017-05-02T00:57:18.974Z,-6.93
2017-05-02T00:58:18.952Z,-6.98
2017-05-02T00:59:18.934Z,-6.99
2017-05-02T01:00:18.907Z,-6.98
2017-05-02T01:01:18.880Z,-6.95
2017-05-02T01:02:18.859Z,-6.96
2017-05-02T01:03:18.839Z,-6.89
2017-05-02T01:04:18.523Z,-6.96
2017-05-02T01:05:18.791Z,-6.92
2017-05-02T01:06:18.770Z,-6.9
2017-05-02T01:07:18.745Z,-6.96
2017-05-02T01:08:18.724Z,-7
2017-05-02T01:09:18.706Z,-6.87
2017-05-02T01:10:18.684Z,-6.84
2017-05-02T01:11:18.651Z,-6.9
2017-05-02T01:12:18.634Z,-6.9
2017-05-02T01:13:18.303Z,-6.85
2017-05-02T01:14:18.287Z,-6.92
2017-05-02T01:15:18.561Z,-6.87
2017-05-02T01:16:18.538Z,-6.87
2017-05-02T01:17:18.218Z,-6.92
2017-05-02T01:18:18.195Z,-6.85
2017-05-02T01:19:18.169Z,-6.82
2017-05-02T01:20:18.449Z,-6.95
2017-05-02T01:21:18.435Z,-6.82
2017-05-02T01:22:18.098Z,-6.92
2017-05-02T01:23:18.383Z,-6.95
2017-05-02T01:24:18.373Z,-6.92
2017-05-02T01:25:18.339Z,-6.96
2017-05-02T01:26:18.364Z,-6.87
2017-05-02T01:27:18.287Z,-6.92
2017-05-02T01:28:18.267Z,-6.96
2017-05-02T01:29:17.948Z,-6.96
2017-05-02T01:30:18.221Z,-6.95
2017-05-02T01:31:18.197Z,-6.98
2017-05-02T01:32:18.179Z,-6.98
2017-05-02T01:33:17.857Z,-6.98
2017-05-02T01:34:18.131Z,-6.98
2017-05-02T01:35:17.802Z,-7
2017-05-02T01:36:17.780Z,-6.99
2017-05-02T01:37:18.062Z,-6.87
2017-05-02T01:38:18.037Z,-6.95
2017-05-02T01:39:17.710Z,-6.93
2017-05-02T01:40:17.989Z,-6.95
2017-05-02T01:41:17.663Z,-6.96
2017-05-02T01:42:17.944Z,-6.99
2017-05-02T01:43:17.926Z,-6.96
2017-05-02T01:44:17.595Z,-6.92
2017-05-02T01:45:17.872Z,-6.95
2017-05-02T01:46:17.546Z,-6.93
2017-05-02T01:47:17.829Z,-6.93
2017-05-02T01:48:17.805Z,-6.92
2017-05-02T01:49:17.790Z,-6.93
2017-05-02T01:50:17.761Z,-6.9
2017-05-02T01:51:17.432Z,-6.96
2017-05-02T01:52:17.710Z,-6.9
2017-05-02T01:53:17.393Z,-6.99
2017-05-02T01:54:17.664Z,-7
2017-05-02T01:55:17.341Z,-7
2017-05-02T01:56:17.320Z,-6.96
2017-05-02T01:57:17.290Z,-6.95
2017-05-02T01:58:17.271Z,-7
2017-05-02T01:59:17.555Z,-6.98
2017-05-02T02:00:17.529Z,-7.03
2017-05-02T02:01:17.204Z,-7.08
2017-05-02T02:02:17.482Z,-7.05
2017-05-02T02:03:17.156Z,-7.03
2017-05-02T02:04:17.438Z,-7.08
2017-05-02T02:05:17.413Z,-7.08
2017-05-02T02:06:17.088Z,-7.11
2017-05-02T02:07:17.068Z,-7.03
2017-05-02T02:08:17.043Z,-7.14
2017-05-02T02:09:17.020Z,-7.11
2017-05-02T02:10:17.301Z,-7.13
2017-05-02T02:11:17.279Z,-7.11
2017-05-02T02:12:16.951Z,-7.11
2017-05-02T02:13:17.235Z,-7.02
2017-05-02T02:14:17.216Z,-7.1
2017-05-02T02:15:16.883Z,-7.07
2017-05-02T02:16:17.155Z,-7.14
2017-05-02T02:17:17.169Z,-7.13
2017-05-02T02:18:16.816Z,-7.08
2017-05-02T02:19:17.091Z,-7.14
2017-05-02T02:20:17.071Z,-7.14
2017-05-02T02:21:16.772Z,-7.11
2017-05-02T02:22:16.721Z,-7.13
2017-05-02T02:23:16.698Z,-7.23
2017-05-02T02:24:16.674Z,-7.1
2017-05-02T02:25:16.954Z,-7.08
2017-05-02T02:26:16.929Z,-7.02
2017-05-02T02:27:16.602Z,-7.1
2017-05-02T02:28:16.588Z,-7.14
2017-05-02T02:29:16.857Z,-7.14
2017-05-02T02:30:16.833Z,-7.02
2017-05-02T02:31:16.810Z,-7.05
2017-05-02T02:32:16.792Z,-7.16
2017-05-02T02:33:16.470Z,-7.11
2017-05-02T02:34:16.749Z,-7.07
2017-05-02T02:35:16.724Z,-7.11
2017-05-02T02:36:16.695Z,-7.14
2017-05-02T02:37:16.678Z,-7.1
2017-05-02T02:38:16.661Z,-7.1
2017-05-02T02:39:16.634Z,-6.98
2017-05-02T02:40:16.309Z,-6.93
2017-05-02T02:41:16.584Z,-6.95
2017-05-02T02:42:16.559Z,-6.93
2017-05-02T02:43:16.538Z,-6.93
2017-05-02T02:44:16.521Z,-6.89
2017-05-02T02:45:16.489Z,-6.79
2017-05-02T02:46:16.467Z,-6.87
2017-05-02T02:47:16.446Z,-6.81
2017-05-02T02:48:16.423Z,-6.84
2017-05-02T02:49:16.402Z,-6.72
2017-05-02T02:50:16.382Z,-6.82
2017-05-02T02:51:16.356Z,-6.87
2017-05-02T02:52:16.331Z,-6.79
2017-05-02T02:53:16.309Z,-6.89
2017-05-02T02:54:16.287Z,-6.89
2017-05-02T02:55:16.263Z,-6.93
2017-05-02T02:56:16.242Z,-6.89
2017-05-02T02:57:16.219Z,-6.95
2017-05-02T02:58:16.200Z,-6.9
2017-05-02T02:59:16.169Z,-6.85
2017-05-02T03:00:16.150Z,-6.82
2017-05-02T03:01:16.129Z,-6.84
2017-05-02T03:02:16.103Z,-6.95
2017-05-02T03:03:16.077Z,-6.85
2017-05-02T03:04:16.060Z,-6.84
2017-05-02T03:05:15.730Z,-6.87
2017-05-02T03:06:16.016Z,-6.89
2017-05-02T03:07:15.989Z,-6.84
2017-05-02T03:08:15.987Z,-6.85
2017-05-02T03:09:15.645Z,-6.85
2017-05-02T03:10:15.622Z,-6.84
2017-05-02T03:11:15.902Z,-6.75
2017-05-02T03:12:15.572Z,-6.74
2017-05-02T03:13:15.554Z,-6.77
2017-05-02T03:14:15.829Z,-6.84
2017-05-02T03:15:15.812Z,-6.82
2017-05-02T03:16:15.483Z,-6.85
2017-05-02T03:17:15.769Z,-6.92
2017-05-02T03:18:15.741Z,-6.82
2017-05-02T03:19:15.424Z,-6.87
2017-05-02T03:20:15.696Z,-6.92
2017-05-02T03:21:15.671Z,-6.89
2017-05-02T03:22:15.647Z,-6.85
2017-05-02T03:23:15.627Z,-6.98
2017-05-02T03:24:15.300Z,-6.96
2017-05-02T03:25:15.281Z,-7.02
2017-05-02T03:26:15.555Z,-6.89
2017-05-02T03:27:15.532Z,-6.87
2017-05-02T03:28:15.513Z,-6.84
2017-05-02T03:29:15.489Z,-6.84
2017-05-02T03:30:15.464Z,-6.81
2017-05-02T03:31:15.139Z,-6.84
2017-05-02T03:32:15.418Z,-6.84
2017-05-02T03:33:15.401Z,-6.82
2017-05-02T03:34:15.372Z,-6.84
2017-05-02T03:35:15.350Z,-6.87
2017-05-02T03:36:15.329Z,-6.77
2017-05-02T03:37:15.305Z,-6.78
2017-05-02T03:38:14.980Z,-6.84
2017-05-02T03:39:14.959Z,-6.81
2017-05-02T03:40:15.237Z,-6.84
2017-05-02T03:41:14.911Z,-6.81
2017-05-02T03:42:15.194Z,-6.81
2017-05-02T03:43:15.171Z,-6.78
2017-05-02T03:44:14.849Z,-6.77
2017-05-02T03:45:14.820Z,-6.78
2017-05-02T03:46:15.106Z,-6.69
2017-05-02T03:47:15.080Z,-6.72
2017-05-02T03:48:14.757Z,-6.71
2017-05-02T03:49:15.043Z,-6.77
2017-05-02T03:50:15.023Z,-6.75
2017-05-02T03:51:14.993Z,-6.72
2017-05-02T03:52:14.964Z,-6.75
2017-05-02T03:53:14.646Z,-6.79
2017-05-02T03:54:14.927Z,-6.78
2017-05-02T03:55:14.897Z,-6.77
2017-05-02T03:56:14.878Z,-6.75
2017-05-02T03:57:14.853Z,-6.77
2017-05-02T03:58:14.525Z,-6.75
2017-05-02T03:59:14.815Z,-6.67
2017-05-02T04:00:14.784Z,-6.67
2017-05-02T04:01:14.767Z,-6.69
2017-05-02T04:02:14.740Z,-6.72
2017-05-02T04:03:14.722Z,-6.67
2017-05-02T04:04:14.400Z,-6.63
2017-05-02T04:05:14.672Z,-6.6
2017-05-02T04:06:14.347Z,-6.71
2017-05-02T04:07:14.631Z,-6.71
2017-05-02T04:08:14.311Z,-6.67
2017-05-02T04:09:14.582Z,-6.67
2017-05-02T04:10:14.563Z,-6.78
2017-05-02T04:11:14.243Z,-6.74
2017-05-02T04:12:14.519Z,-6.77
2017-05-02T04:13:14.500Z,-6.74
2017-05-02T04:14:14.475Z,-6.64
2017-05-02T04:15:14.454Z,-6.61
2017-05-02T04:16:14.432Z,-6.6
2017-05-02T04:17:14.406Z,-6.6
2017-05-02T04:18:14.085Z,-6.56
2017-05-02T04:19:14.367Z,-6.55
2017-05-02T04:20:14.337Z,-6.59
2017-05-02T04:21:14.315Z,-6.5
2017-05-02T04:22:14.296Z,-6.45
2017-05-02T04:23:14.277Z,-6.53
2017-05-02T04:24:14.256Z,-6.52
2017-05-02T04:25:14.228Z,-6.47
2017-05-02T04:26:13.903Z,-6.55
2017-05-02T04:27:14.185Z,-6.55
2017-05-02T04:28:14.170Z,-6.52
2017-05-02T04:29:13.849Z,-6.47
2017-05-02T04:30:13.818Z,-6.53
2017-05-02T04:31:14.098Z,-6.59
2017-05-02T04:32:14.073Z,-6.66
2017-05-02T04:33:14.061Z,-6.67
2017-05-02T04:34:14.028Z,-6.59
2017-05-02T04:35:14.014Z,-6.52
2017-05-02T04:36:13.990Z,-6.47
2017-05-02T04:37:13.965Z,-6.56
2017-05-02T04:38:13.942Z,-6.5
2017-05-02T04:39:13.921Z,-6.59
2017-05-02T04:40:13.895Z,-6.52
2017-05-02T04:41:13.880Z,-6.47
2017-05-02T04:42:13.560Z,-6.56
2017-05-02T04:43:13.834Z,-6.52
2017-05-02T04:44:13.813Z,-6.6
2017-05-02T04:45:13.786Z,-6.52
2017-05-02T04:46:13.767Z,-6.6
2017-05-02T04:47:13.444Z,-6.48
2017-05-02T04:48:13.716Z,-6.56
2017-05-02T04:49:13.703Z,-6.55
2017-05-02T04:50:13.672Z,-6.56
2017-05-02T04:51:13.651Z,-6.45
2017-05-02T04:52:13.636Z,-6.52
2017-05-02T04:53:13.313Z,-6.55
2017-05-02T04:54:13.592Z,-6.5
2017-05-02T04:55:13.561Z,-6.48
2017-05-02T04:56:13.542Z,-6.47
2017-05-02T04:57:13.517Z,-6.5
2017-05-02T04:58:13.497Z,-6.56
2017-05-02T04:59:13.480Z,-6.52
2017-05-02T05:00:13.453Z,-6.5
2017-05-02T05:01:13.431Z,-6.56
2017-05-02T05:02:13.410Z,-6.45
2017-05-02T05:03:13.091Z,-6.59
2017-05-02T05:04:13.369Z,-6.6
2017-05-02T05:05:13.343Z,-6.48
2017-05-02T05:06:13.327Z,-6.48
2017-05-02T05:07:12.993Z,-6.55
2017-05-02T05:08:13.270Z,-6.5
2017-05-02T05:09:12.949Z,-6.38
2017-05-02T05:10:12.929Z,-6.44
2017-05-02T05:11:13.209Z,-6.32
2017-05-02T05:12:12.882Z,-6.26
2017-05-02T05:13:13.168Z,-6.26
2017-05-02T05:14:13.143Z,-6.29
2017-05-02T05:15:12.820Z,-6.31
2017-05-02T05:16:13.097Z,-6.31
2017-05-02T05:17:12.771Z,-6.26
2017-05-02T05:18:12.757Z,-6.23
2017-05-02T05:19:12.731Z,-6.14
2017-05-02T05:20:13.012Z,-6.08
2017-05-02T05:21:12.987Z,-6.06
2017-05-02T05:22:12.878Z,-6.27
2017-05-02T05:23:12.945Z,-6.23
2017-05-02T05:24:12.623Z,-6.31
2017-05-02T05:25:12.902Z,-6.27
2017-05-02T05:26:12.580Z,-6.23
2017-05-02T05:27:12.856Z,-6.26
2017-05-02T05:28:12.836Z,-6.32
2017-05-02T05:29:12.818Z,-6.35
2017-05-02T05:30:12.788Z,-6.39
2017-05-02T05:31:12.770Z,-6.41
2017-05-02T05:32:12.748Z,-6.39
2017-05-02T05:33:12.426Z,-6.42
2017-05-02T05:34:12.703Z,-6.52
2017-05-02T05:35:12.378Z,-6.37
2017-05-02T05:36:12.655Z,-6.41
2017-05-02T05:37:12.638Z,-6.42
2017-05-02T05:38:12.315Z,-6.53
2017-05-02T05:39:12.591Z,-6.48
2017-05-02T05:40:12.566Z,-6.37
2017-05-02T05:41:12.244Z,-6.52
2017-05-02T05:42:12.529Z,-6.42
2017-05-02T05:43:12.505Z,-6.41
2017-05-02T05:44:12.477Z,-6.38
2017-05-02T05:45:12.459Z,-6.39
2017-05-02T05:46:12.435Z,-6.44
2017-05-02T05:47:12.416Z,-6.47
2017-05-02T05:48:12.392Z,-6.52
2017-05-02T05:49:12.371Z,-6.5
2017-05-02T05:50:12.254Z,-6.38
2017-05-02T05:51:12.226Z,-6.48
2017-05-02T05:52:12.297Z,-6.48
2017-05-02T05:53:11.976Z,-6.45
2017-05-02T05:54:12.459Z,-6.45
2017-05-02T05:55:12.229Z,-6.5
2017-05-02T05:56:12.209Z,-6.44
2017-05-02T05:57:12.186Z,-6.53
2017-05-02T05:58:12.172Z,-6.48
2017-05-02T05:59:11.845Z,-6.45
2017-05-02T06:00:11.814Z,-6.38
2017-05-02T06:01:12.103Z,-6.38
2017-05-02T06:02:11.775Z,-6.41
2017-05-02T06:03:12.048Z,-6.26
2017-05-02T06:04:12.032Z,-6.29
2017-05-02T06:05:12.005Z,-6.23
2017-05-02T06:06:11.686Z,-6.23
2017-05-02T06:07:11.963Z,-6.2
2017-05-02T06:08:11.946Z,-6.21
2017-05-02T06:09:11.923Z,-6.32
2017-05-02T06:10:11.898Z,-6.23
2017-05-02T06:11:11.573Z,-6.23
2017-05-02T06:12:11.857Z,-6.29
2017-05-02T06:13:11.836Z,-6.23
2017-05-02T06:14:11.808Z,-6.24
2017-05-02T06:15:11.790Z,-6.27
2017-05-02T06:16:11.762Z,-6.26
2017-05-02T06:17:11.741Z,-6.2
2017-05-02T06:18:11.724Z,-6.17
2017-05-02T06:19:11.698Z,-6.02
2017-05-02T06:20:11.677Z,-5.96
2017-05-02T06:21:11.654Z,-6.09
2017-05-02T06:22:11.360Z,-6.06
2017-05-02T06:23:11.616Z,-6.05
2017-05-02T06:24:11.597Z,-5.92
2017-05-02T06:25:11.568Z,-5.84
2017-05-02T06:26:11.550Z,-5.85
2017-05-02T06:27:11.543Z,-5.7
2017-05-02T06:28:11.199Z,-5.64
2017-05-02T06:29:11.486Z,-5.6
2017-05-02T06:30:11.159Z,-5.7
2017-05-02T06:31:11.638Z,-5.7
2017-05-02T06:32:11.416Z,-5.63
2017-05-02T06:33:11.394Z,-5.53
2017-05-02T06:34:11.379Z,-5.62
2017-05-02T06:35:11.353Z,-5.48
2017-05-02T06:36:11.341Z,-5.59
2017-05-02T06:37:11.312Z,-5.48
2017-05-02T06:38:11.291Z,-5.6
2017-05-02T06:39:11.267Z,-5.55
2017-05-02T06:40:10.939Z,-5.6
2017-05-02T06:41:11.231Z,-5.62
2017-05-02T06:42:10.898Z,-5.45
2017-05-02T06:43:11.177Z,-5.45
2017-05-02T06:44:11.158Z,-5.46
2017-05-02T06:45:11.134Z,-5.51
2017-05-02T06:46:11.114Z,-5.62
2017-05-02T06:47:11.095Z,-5.6
2017-05-02T06:48:11.075Z,-5.48
2017-05-02T06:49:10.752Z,-5.46
2017-05-02T06:50:10.423Z,-5.41
2017-05-02T06:51:11.005Z,-5.34
2017-05-02T06:52:10.987Z,-5.34
2017-05-02T06:53:10.963Z,-5.33
2017-05-02T06:54:10.953Z,-5.35
2017-05-02T06:55:11.139Z,-5.35
2017-05-02T06:56:10.904Z,-5.3
2017-05-02T06:57:10.887Z,-5.45
2017-05-02T06:58:10.556Z,-5.38
2017-05-02T06:59:10.842Z,-5.42
2017-05-02T07:00:11.019Z,-5.45
2017-05-02T07:01:10.493Z,-5.38
2017-05-02T07:02:10.778Z,-5.38
2017-05-02T07:03:10.754Z,-5.38
2017-05-02T07:04:10.441Z,-5.35
2017-05-02T07:05:10.712Z,-5.35
2017-05-02T07:06:10.690Z,-5.38
2017-05-02T07:07:10.368Z,-5.46
2017-05-02T07:08:10.350Z,-5.41
2017-05-02T07:09:10.623Z,-5.33
2017-05-02T07:10:10.303Z,-5.38
2017-05-02T07:11:10.322Z,-5.42
2017-05-02T07:12:10.262Z,-5.3
2017-05-02T07:13:10.243Z,-5.33
2017-05-02T07:14:10.224Z,-5.34
2017-05-02T07:15:10.506Z,-5.27
2017-05-02T07:16:10.175Z,-5.13
2017-05-02T07:17:10.458Z,-5.23
2017-05-02T07:18:10.133Z,-5.17
2017-05-02T07:19:10.418Z,-5.05
2017-05-02T07:20:10.090Z,-4.88
2017-05-02T07:21:10.067Z,-4.83
2017-05-02T07:22:10.385Z,-4.74
2017-05-02T07:23:10.334Z,-4.66
2017-05-02T07:24:09.709Z,-4.44
2017-05-02T07:25:10.294Z,-4.58
2017-05-02T07:26:09.967Z,-4.65
2017-05-02T07:27:09.950Z,-4.59
2017-05-02T07:28:09.930Z,-4.49
2017-05-02T07:29:10.211Z,-4.58
2017-05-02T07:30:10.192Z,-4.51
2017-05-02T07:31:10.178Z,-4.59
2017-05-02T07:32:09.853Z,-4.54
2017-05-02T07:33:10.038Z,-4.36
2017-05-02T07:34:10.114Z,-4.36
2017-05-02T07:35:09.793Z,-4.72
2017-05-02T07:36:09.774Z,-4.58
2017-05-02T07:37:10.049Z,-4.72
2017-05-02T07:38:10.041Z,-4.73
2017-05-02T07:39:10.013Z,-4.76
2017-05-02T07:40:09.994Z,-4.63
2017-05-02T07:41:09.669Z,-4.17
2017-05-02T07:42:09.955Z,-3.89
2017-05-02T07:43:09.933Z,-3.99
2017-05-02T07:44:09.912Z,-3.8
2017-05-02T07:45:09.899Z,-3.8
2017-05-02T07:46:09.868Z,-3.65
2017-05-02T07:47:09.551Z,-3.49
2017-05-02T07:48:09.837Z,-3.34
2017-05-02T07:49:09.820Z,-3.37
2017-05-02T07:50:09.494Z,-3.43
2017-05-02T07:51:09.478Z,-3.37
2017-05-02T07:52:09.457Z,-3.34
2017-05-02T07:53:09.439Z,-3.39
2017-05-02T07:54:09.723Z,-3.46
2017-05-02T07:55:09.403Z,-3.4
2017-05-02T07:56:09.680Z,-3.49
2017-05-02T07:57:09.661Z,-3.43
2017-05-02T07:58:09.652Z,-3.23
2017-05-02T07:59:09.632Z,-3.19
2017-05-02T08:00:09.602Z,-3.25
2017-05-02T08:01:09.288Z,-3.15
2017-05-02T08:02:09.568Z,-3.21
2017-05-02T08:03:09.559Z,-3.15
2017-05-02T08:04:09.538Z,-3.13
2017-05-02T08:05:09.717Z,-3.37
2017-05-02T08:06:08.891Z,-3.59
2017-05-02T08:07:09.478Z,-3.58
2017-05-02T08:08:09.158Z,-3.39
2017-05-02T08:09:09.438Z,-3.39
2017-05-02T08:10:09.420Z,-3.34
2017-05-02T08:11:09.402Z,-3.07
2017-05-02T08:12:09.386Z,-2.76
2017-05-02T08:13:09.393Z,-2.46
2017-05-02T08:14:09.350Z,-2.03
2017-05-02T08:15:09.328Z,-1.62
2017-05-02T08:16:09.317Z,-1.17
2017-05-02T08:17:09.299Z,-1.18
2017-05-02T08:18:09.281Z,-2.04
2017-05-02T08:19:09.265Z,-2.41
2017-05-02T08:20:09.246Z,-2.84
2017-05-02T08:21:09.234Z,-3.25
2017-05-02T08:22:09.212Z,-3.95
2017-05-02T08:23:09.193Z,-4.09
2017-05-02T08:24:09.179Z,-4.16
2017-05-02T08:25:09.165Z,-4.36
2017-05-02T08:26:09.139Z,-3.86
2017-05-02T08:27:09.126Z,-3.31
2017-05-02T08:28:09.106Z,-2.84
2017-05-02T08:29:09.093Z,-2.33
2017-05-02T08:30:08.768Z,-1.86
2017-05-02T08:31:09.062Z,-1.53
2017-05-02T08:32:09.037Z,-1.64
2017-05-02T08:33:09.022Z,-1.59
2017-05-02T08:34:09.003Z,-1.28
2017-05-02T08:35:08.989Z,-1.26
2017-05-02T08:36:08.971Z,-1.64
2017-05-02T08:37:08.954Z,-2.26
2017-05-02T08:38:08.934Z,-3.08
2017-05-02T08:39:08.918Z,-3.08
2017-05-02T08:40:08.899Z,-2.93
2017-05-02T08:41:08.627Z,-2.95
2017-05-02T08:42:08.892Z,-3.12
2017-05-02T08:43:08.849Z,-2.71
2017-05-02T08:44:08.830Z,-2.4
2017-05-02T08:45:08.816Z,-2.06
2017-05-02T08:46:08.795Z,-2.16
2017-05-02T08:47:08.483Z,-2.46
2017-05-02T08:48:08.762Z,-2.65
2017-05-02T08:49:08.759Z,-2.9
2017-05-02T08:50:08.729Z,-2.83
2017-05-02T08:51:08.411Z,-2.79
2017-05-02T08:52:08.392Z,-2.83
2017-05-02T08:53:08.678Z,-2.66
2017-05-02T08:54:08.662Z,-2.79
2017-05-02T08:55:08.644Z,-2.89
2017-05-02T08:56:08.325Z,-3.02
2017-05-02T08:57:08.306Z,-2.98
2017-05-02T08:58:08.287Z,-2.95
2017-05-02T08:59:08.570Z,-2.97
2017-05-02T09:00:08.551Z,-3.15
2017-05-02T09:01:08.536Z,-3.22
2017-05-02T09:02:08.518Z,-3.08
2017-05-02T09:03:08.500Z,-3.01
2017-05-02T09:04:08.483Z,-3.1
2017-05-02T09:05:08.157Z,-3.12
2017-05-02T09:06:08.139Z,-3.08
2017-05-02T09:07:08.428Z,-3.01
2017-05-02T09:08:08.409Z,-3.04
2017-05-02T09:09:08.394Z,-3.07
2017-05-02T09:10:08.368Z,-3.07
2017-05-02T09:11:08.352Z,-3.15
2017-05-02T09:12:08.336Z,-3.21
2017-05-02T09:13:08.011Z,-3.08
2017-05-02T09:14:08.298Z,-3.12
2017-05-02T09:15:08.283Z,-3.16
2017-05-02T09:16:07.959Z,-3.12
2017-05-02T09:17:08.240Z,-3.12
2017-05-02T09:18:08.222Z,-3
2017-05-02T09:19:08.207Z,-2.82
2017-05-02T09:20:07.919Z,-2.69
2017-05-02T09:21:07.869Z,-2.66
2017-05-02T09:22:07.548Z,-2.77
2017-05-02T09:23:07.533Z,-2.95
2017-05-02T09:24:07.813Z,-2.95
2017-05-02T09:25:07.794Z,-3.12
2017-05-02T09:26:07.782Z,-3.1
2017-05-02T09:27:08.060Z,-3
2017-05-02T09:28:08.041Z,-3.07
2017-05-02T09:29:08.027Z,-3.12
2017-05-02T09:30:08.011Z,-3.1
2017-05-02T09:31:07.986Z,-3.1
2017-05-02T09:32:07.972Z,-3.02
2017-05-02T09:33:07.654Z,-2.9
2017-05-02T09:34:07.936Z,-3.05
2017-05-02T09:35:07.916Z,-3.1
2017-05-02T09:36:07.900Z,-3.1
2017-05-02T09:37:07.580Z,-3.13
2017-05-02T09:38:07.562Z,-3.26
2017-05-02T09:39:07.841Z,-3.23
2017-05-02T09:40:07.525Z,-3.12
2017-05-02T09:41:07.506Z,-3.15
2017-05-02T09:42:07.484Z,-3.13
2017-05-02T09:43:07.802Z,-3.22
2017-05-02T09:44:07.758Z,-3.23
2017-05-02T09:45:07.434Z,-3.21
2017-05-02T09:46:07.412Z,-3.15
2017-05-02T09:47:07.697Z,-3.23
2017-05-02T09:48:07.379Z,-3.01
2017-05-02T09:49:07.662Z,-2.84
2017-05-02T09:50:07.340Z,-2.74
2017-05-02T09:51:07.626Z,-2.69
2017-05-02T09:52:07.304Z,-2.84
2017-05-02T09:53:07.288Z,-2.94
2017-05-02T09:54:07.575Z,-2.86
2017-05-02T09:55:07.253Z,-2.97
2017-05-02T09:56:07.237Z,-3.01
2017-05-02T09:57:07.518Z,-3.08
2017-05-02T09:58:07.498Z,-3.07
2017-05-02T09:59:07.176Z,-2.9
2017-05-02T10:00:07.467Z,-3.07
2017-05-02T10:01:07.445Z,-3.13
2017-05-02T10:02:07.431Z,-3.07
2017-05-02T10:03:07.405Z,-3.23
2017-05-02T10:04:07.391Z,-3.33
2017-05-02T10:05:07.078Z,-3.3
2017-05-02T10:06:07.355Z,-3.07
2017-05-02T10:07:07.337Z,-3.1
2017-05-02T10:08:07.016Z,-3.02
2017-05-02T10:09:06.699Z,-2.95
2017-05-02T10:10:06.676Z,-2.89
2017-05-02T10:11:07.265Z,-3
2017-05-02T10:12:07.248Z,-3.04
2017-05-02T10:13:06.926Z,-3.16
2017-05-02T10:14:06.940Z,-3.1
2017-05-02T10:15:07.197Z,-3.07
2017-05-02T10:16:07.174Z,-3.15
2017-05-02T10:17:07.156Z,-3.16
2017-05-02T10:18:07.142Z,-3.16
2017-05-02T10:19:06.818Z,-3.1
2017-05-02T10:20:07.097Z,-3.1
2017-05-02T10:21:07.078Z,-3.1
2017-05-02T10:22:06.762Z,-3.1
2017-05-02T10:23:07.046Z,-3
2017-05-02T10:24:07.036Z,-2.98
2017-05-02T10:25:06.713Z,-2.87
2017-05-02T10:26:06.995Z,-2.95
2017-05-02T10:27:06.977Z,-2.79
2017-05-02T10:28:06.961Z,-2.74
2017-05-02T10:29:06.940Z,-2.79
2017-05-02T10:30:06.618Z,-2.79
2017-05-02T10:31:06.916Z,-2.72
2017-05-02T10:32:06.598Z,-2.82
2017-05-02T10:33:06.877Z,-2.89
2017-05-02T10:34:06.867Z,-2.97
2017-05-02T10:35:06.545Z,-2.95
2017-05-02T10:36:06.512Z,-3
2017-05-02T10:37:06.830Z,-2.97
2017-05-02T10:38:06.773Z,-2.84
2017-05-02T10:39:06.454Z,-2.87
2017-05-02T10:40:06.438Z,-2.72
2017-05-02T10:41:06.423Z,-2.61
2017-05-02T10:42:06.744Z,-2.53
2017-05-02T10:43:06.387Z,-2.62
2017-05-02T10:44:06.367Z,-2.62
2017-05-02T10:45:06.350Z,-2.35
2017-05-02T10:46:06.343Z,-2.19
2017-05-02T10:47:06.622Z,-2.06
2017-05-02T10:48:06.604Z,-1.89
2017-05-02T10:49:06.588Z,-1.92
2017-05-02T10:50:06.566Z,-2.03
2017-05-02T10:51:06.552Z,-2.32
2017-05-02T10:52:06.534Z,-2.33
2017-05-02T10:53:06.523Z,-2.33
2017-05-02T10:54:06.512Z,-2.19
2017-05-02T10:55:06.484Z,-2.19
2017-05-02T10:56:06.474Z,-2.21
2017-05-02T10:57:06.451Z,-2.18
2017-05-02T10:58:06.436Z,-2.01
2017-05-02T10:59:06.417Z,-1.98
2017-05-02T11:00:06.104Z,-2.1
2017-05-02T11:01:05.779Z,-2.01
2017-05-02T11:02:06.370Z,-1.95
2017-05-02T11:03:05.752Z,-2.04
2017-05-02T11:04:06.340Z,-1.98
2017-05-02T11:05:06.021Z,-1.86
2017-05-02T11:06:06.305Z,-1.61
2017-05-02T11:07:06.291Z,-1.68
2017-05-02T11:08:06.274Z,-1.95
2017-05-02T11:09:05.968Z,-2.19
2017-05-02T11:10:06.240Z,-1.92
2017-05-02T11:11:05.920Z,-1.56
2017-05-02T11:12:05.903Z,-1.23
2017-05-02T11:13:06.191Z,-1.11
2017-05-02T11:14:06.177Z,-1.17
2017-05-02T11:15:05.859Z,-1.39
2017-05-02T11:16:06.138Z,-1.41
2017-05-02T11:17:05.824Z,-1.51
2017-05-02T11:18:06.116Z,-1.39
2017-05-02T11:19:06.101Z,-1.2
2017-05-02T11:20:06.081Z,-1.02
2017-05-02T11:21:06.063Z,-0.73
2017-05-02T11:22:06.044Z,-0.58
2017-05-02T11:23:06.033Z,-0.53
2017-05-02T11:24:06.016Z,-0.59
2017-05-02T11:25:06.001Z,-0.53
2017-05-02T11:26:05.988Z,-0.53
2017-05-02T11:27:05.970Z,-0.7
2017-05-02T11:28:05.990Z,-0.73
2017-05-02T11:29:05.944Z,-0.86
2017-05-02T11:30:05.930Z,-0.86
2017-05-02T11:31:05.910Z,-0.73
2017-05-02T11:32:05.893Z,-0.71
2017-05-02T11:33:05.885Z,-1.77
2017-05-02T11:34:05.865Z,-1.53
2017-05-02T11:35:05.856Z,-1.18
2017-05-02T11:36:05.532Z,-0.93
2017-05-02T11:37:05.519Z,-0.86
2017-05-02T11:38:05.824Z,-0.67
2017-05-02T11:39:05.791Z,-0.35
2017-05-02T11:40:05.478Z,-0.42
2017-05-02T11:41:05.460Z,-0.53
2017-05-02T11:42:05.441Z,-0.55
2017-05-02T11:43:05.733Z,-0.85
2017-05-02T11:44:05.714Z,-1.15
2017-05-02T11:45:05.705Z,-0.86
2017-05-02T11:46:05.686Z,-0.47
2017-05-02T11:47:05.676Z,-0.06
2017-05-02T11:48:05.657Z,-0.14
2017-05-02T11:49:05.646Z,-0.2
2017-05-02T11:50:05.628Z,-0.81
2017-05-02T11:51:05.618Z,-1.17
2017-05-02T11:52:05.604Z,-1.61
2017-05-02T11:53:05.587Z,-1.7
2017-05-02T11:54:05.573Z,-1.41
2017-05-02T11:55:05.255Z,-1.13
2017-05-02T11:56:05.543Z,-0.95
2017-05-02T11:57:05.532Z,-0.7
2017-05-02T11:58:05.517Z,-0.78
2017-05-02T11:59:05.504Z,-0.78
2017-05-02T12:00:05.487Z,-1.07
2017-05-02T12:01:05.483Z,-1.18
2017-05-02T12:02:05.458Z,-0.96
2017-05-02T12:03:05.438Z,-0.74
2017-05-02T12:04:05.423Z,-0.37
2017-05-02T12:05:05.411Z,-0.71
2017-05-02T12:06:05.399Z,-0.99
2017-05-02T12:07:05.078Z,-0.81
2017-05-02T12:08:05.371Z,-0.23
2017-05-02T12:09:05.356Z,-0.02
2017-05-02T12:10:05.345Z,0.2
2017-05-02T12:11:05.331Z,0.22
2017-05-02T12:12:05.315Z,0.64
2017-05-02T12:13:05.304Z,1.06
2017-05-02T12:14:05.290Z,1
2017-05-02T12:15:05.273Z,1.11
2017-05-02T12:16:05.259Z,1.2
2017-05-02T12:17:05.244Z,0.98
2017-05-02T12:18:05.247Z,0.71
2017-05-02T12:19:05.222Z,0.62
2017-05-02T12:20:05.202Z,0.52
2017-05-02T12:21:05.192Z,0.34
2017-05-02T12:22:05.179Z,0.16
2017-05-02T12:23:04.858Z,0.07
2017-05-02T12:24:05.152Z,0.12
2017-05-02T12:25:05.134Z,0.2
2017-05-02T12:26:05.119Z,0.08
2017-05-02T12:27:04.808Z,-0.16
2017-05-02T12:28:05.091Z,-0.41
2017-05-02T12:29:05.081Z,-0.39
2017-05-02T12:30:04.760Z,-0.14
2017-05-02T12:31:04.746Z,-0.06
2017-05-02T12:32:04.728Z,-0.09
2017-05-02T12:33:04.717Z,0.19
2017-05-02T12:34:05.005Z,0.49
2017-05-02T12:35:04.689Z,0.41
2017-05-02T12:36:04.673Z,0.34
2017-05-02T12:37:04.965Z,0.63
2017-05-02T12:38:04.946Z,0.89
2017-05-02T12:39:04.628Z,0.9
2017-05-02T12:40:04.919Z,0.78
2017-05-02T12:41:04.907Z,0.68
2017-05-02T12:42:04.889Z,0.31
2017-05-02T12:43:04.880Z,0.02
2017-05-02T12:44:04.862Z,-0.21
2017-05-02T12:45:04.848Z,-0.45
2017-05-02T12:46:04.828Z,-0.42
2017-05-02T12:47:04.819Z,-0.31
2017-05-02T12:48:04.502Z,0.08
2017-05-02T12:49:04.831Z,0.6
2017-05-02T12:50:04.479Z,1.11
2017-05-02T12:51:04.755Z,1.29
2017-05-02T12:52:04.746Z,1.34
2017-05-02T12:53:04.431Z,1.2
2017-05-02T12:54:04.416Z,1.28
2017-05-02T12:57:17.808Z,1.2
2017-05-02T12:57:27.902Z,1.26
2017-05-02T12:58:27.892Z,1.1